sensor_id;sensor_type;location;lat;lon;timestamp;temperature;humidity
3023;DHT22;1521;53.584;9.938;2023-06-24T00:02:13;15.50;99.90
3023;DHT22;1521;53.584;9.938;2023-06-24T00:04:39;15.40;99.90
3023;DHT22;1521;53.584;9.938;2023-06-24T00:07:05;15.50;99.90
3023;DHT22;1521;53.584;9.938;2023-06-24T00:09:30;15.40;99.90
3023;DHT22;1521;53.584;9.938;2023-06-24T00:11:57;15.40;99.90
3023;DHT22;1521;53.584;9.938;2023-06-24T00:14:27;15.40;99.90
3023;DHT22;1521;53.584;9.938;2023-06-24T00:16:54;15.40;99.90
3023;DHT22;1521;53.584;9.938;2023-06-24T00:19:21;15.30;99.90
3023;DHT22;1521;53.584;9.938;2023-06-24T00:21:49;15.30;99.90
3023;DHT22;1521;53.584;9.938;2023-06-24T00:24:17;15.30;99.90
3023;DHT22;1521;53.584;9.938;2023-06-24T00:26:45;15.30;99.90
3023;DHT22;1521;53.584;9.938;2023-06-24T00:29:11;15.30;99.90
3023;DHT22;1521;53.584;9.938;2023-06-24T00:31:37;15.20;99.90
3023;DHT22;1521;53.584;9.938;2023-06-24T00:34:02;15.20;99.90
3023;DHT22;1521;53.584;9.938;2023-06-24T00:36:28;15.20;99.90
3023;DHT22;1521;53.584;9.938;2023-06-24T00:38:55;15.20;99.90
3023;DHT22;1521;53.584;9.938;2023-06-24T00:41:21;15.10;99.90
3023;DHT22;1521;53.584;9.938;2023-06-24T00:43:47;15.10;99.90
3023;DHT22;1521;53.584;9.938;2023-06-24T00:46:12;15.10;99.90
3023;DHT22;1521;53.584;9.938;2023-06-24T00:48:41;15.10;99.90
3023;DHT22;1521;53.584;9.938;2023-06-24T00:51:06;15.00;99.90
3023;DHT22;1521;53.584;9.938;2023-06-24T00:53:32;15.00;99.90
3023;DHT22;1521;53.584;9.938;2023-06-24T00:55:58;15.00;99.90
3023;DHT22;1521;53.584;9.938;2023-06-24T00:58:32;14.90;99.90
3023;DHT22;1521;53.584;9.938;2023-06-24T01:00:58;14.90;99.90
3023;DHT22;1521;53.584;9.938;2023-06-24T01:03:25;14.90;99.90
3023;DHT22;1521;53.584;9.938;2023-06-24T01:05:51;14.90;99.90
3023;DHT22;1521;53.584;9.938;2023-06-24T01:08:17;14.90;99.90
3023;DHT22;1521;53.584;9.938;2023-06-24T01:10:44;14.90;99.90
3023;DHT22;1521;53.584;9.938;2023-06-24T01:13:10;14.90;99.90
3023;DHT22;1521;53.584;9.938;2023-06-24T01:15:36;14.90;99.90
3023;DHT22;1521;53.584;9.938;2023-06-24T01:18:13;15.00;99.90
3023;DHT22;1521;53.584;9.938;2023-06-24T01:21:03;14.90;99.90
3023;DHT22;1521;53.584;9.938;2023-06-24T01:26:32;14.80;99.90
3023;DHT22;1521;53.584;9.938;2023-06-24T01:34:58;14.70;99.90
3023;DHT22;1521;53.584;9.938;2023-06-24T01:37:45;14.70;99.90
3023;DHT22;1521;53.584;9.938;2023-06-24T01:40:38;14.70;99.90
3023;DHT22;1521;53.584;9.938;2023-06-24T01:43:06;14.70;99.90
3023;DHT22;1521;53.584;9.938;2023-06-24T01:45:42;14.60;99.90
3023;DHT22;1521;53.584;9.938;2023-06-24T01:48:24;14.60;99.90
3023;DHT22;1521;53.584;9.938;2023-06-24T01:51:01;14.50;99.90
3023;DHT22;1521;53.584;9.938;2023-06-24T01:53:28;14.50;99.90
3023;DHT22;1521;53.584;9.938;2023-06-24T01:55:58;14.50;99.90
3023;DHT22;1521;53.584;9.938;2023-06-24T01:58:25;14.50;99.90
3023;DHT22;1521;53.584;9.938;2023-06-24T02:00:52;14.40;99.90
3023;DHT22;1521;53.584;9.938;2023-06-24T02:03:19;14.40;99.90
3023;DHT22;1521;53.584;9.938;2023-06-24T02:05:46;14.40;99.90
3023;DHT22;1521;53.584;9.938;2023-06-24T02:08:13;14.40;99.90
3023;DHT22;1521;53.584;9.938;2023-06-24T02:10:40;14.30;99.90
3023;DHT22;1521;53.584;9.938;2023-06-24T02:13:07;14.30;99.90
3023;DHT22;1521;53.584;9.938;2023-06-24T02:15:35;14.30;99.90
3023;DHT22;1521;53.584;9.938;2023-06-24T02:18:03;14.20;99.90
3023;DHT22;1521;53.584;9.938;2023-06-24T02:20:31;14.20;99.90
3023;DHT22;1521;53.584;9.938;2023-06-24T02:22:58;14.10;99.90
3023;DHT22;1521;53.584;9.938;2023-06-24T02:25:26;14.20;99.90
3023;DHT22;1521;53.584;9.938;2023-06-24T02:27:53;14.10;99.90
3023;DHT22;1521;53.584;9.938;2023-06-24T02:30:21;14.10;99.90
3023;DHT22;1521;53.584;9.938;2023-06-24T02:32:47;14.10;99.90
3023;DHT22;1521;53.584;9.938;2023-06-24T02:35:13;14.10;99.90
3023;DHT22;1521;53.584;9.938;2023-06-24T02:37:39;14.10;99.90
3023;DHT22;1521;53.584;9.938;2023-06-24T02:40:06;14.10;99.90
3023;DHT22;1521;53.584;9.938;2023-06-24T02:42:32;14.10;99.90
3023;DHT22;1521;53.584;9.938;2023-06-24T02:44:58;14.10;99.90
3023;DHT22;1521;53.584;9.938;2023-06-24T02:47:25;14.10;99.90
3023;DHT22;1521;53.584;9.938;2023-06-24T02:49:51;14.10;99.90
3023;DHT22;1521;53.584;9.938;2023-06-24T02:52:17;14.00;99.90
3023;DHT22;1521;53.584;9.938;2023-06-24T02:54:44;14.00;99.90
3023;DHT22;1521;53.584;9.938;2023-06-24T02:57:10;14.00;99.90
3023;DHT22;1521;53.584;9.938;2023-06-24T02:59:36;13.90;99.90
3023;DHT22;1521;53.584;9.938;2023-06-24T03:02:03;13.90;99.90
3023;DHT22;1521;53.584;9.938;2023-06-24T03:04:30;13.90;99.90
3023;DHT22;1521;53.584;9.938;2023-06-24T03:06:56;13.90;99.90
3023;DHT22;1521;53.584;9.938;2023-06-24T03:09:24;13.90;99.90
3023;DHT22;1521;53.584;9.938;2023-06-24T03:11:50;13.90;99.90
3023;DHT22;1521;53.584;9.938;2023-06-24T03:14:16;13.90;99.90
3023;DHT22;1521;53.584;9.938;2023-06-24T03:16:41;13.90;99.90
3023;DHT22;1521;53.584;9.938;2023-06-24T03:19:07;13.90;99.90
3023;DHT22;1521;53.584;9.938;2023-06-24T03:21:33;14.00;99.90
3023;DHT22;1521;53.584;9.938;2023-06-24T03:23:59;14.00;99.90
3023;DHT22;1521;53.584;9.938;2023-06-24T03:26:31;14.00;99.90
3023;DHT22;1521;53.584;9.938;2023-06-24T03:28:58;14.00;99.90
3023;DHT22;1521;53.584;9.938;2023-06-24T03:31:24;14.00;99.90
3023;DHT22;1521;53.584;9.938;2023-06-24T03:33:49;14.00;99.90
3023;DHT22;1521;53.584;9.938;2023-06-24T03:36:15;14.00;99.90
3023;DHT22;1521;53.584;9.938;2023-06-24T03:38:41;14.10;99.90
3023;DHT22;1521;53.584;9.938;2023-06-24T03:41:06;14.10;99.90
3023;DHT22;1521;53.584;9.938;2023-06-24T03:43:32;14.10;99.90
3023;DHT22;1521;53.584;9.938;2023-06-24T03:45:57;14.10;99.90
3023;DHT22;1521;53.584;9.938;2023-06-24T03:48:23;14.10;99.90
3023;DHT22;1521;53.584;9.938;2023-06-24T03:50:49;14.10;99.90
3023;DHT22;1521;53.584;9.938;2023-06-24T03:53:14;14.10;99.90
3023;DHT22;1521;53.584;9.938;2023-06-24T03:55:40;14.20;99.90
3023;DHT22;1521;53.584;9.938;2023-06-24T03:58:05;14.20;99.90
3023;DHT22;1521;53.584;9.938;2023-06-24T04:00:31;14.20;99.90
3023;DHT22;1521;53.584;9.938;2023-06-24T04:02:57;14.30;99.90
3023;DHT22;1521;53.584;9.938;2023-06-24T04:05:26;14.40;99.90
3023;DHT22;1521;53.584;9.938;2023-06-24T04:07:51;14.50;99.90
3023;DHT22;1521;53.584;9.938;2023-06-24T04:10:17;14.60;99.90
3023;DHT22;1521;53.584;9.938;2023-06-24T04:12:44;14.70;99.90
3023;DHT22;1521;53.584;9.938;2023-06-24T04:15:09;14.80;99.90
3023;DHT22;1521;53.584;9.938;2023-06-24T04:17:35;14.90;99.90
3023;DHT22;1521;53.584;9.938;2023-06-24T04:20:01;15.00;99.90
3023;DHT22;1521;53.584;9.938;2023-06-24T04:22:29;15.10;99.90
3023;DHT22;1521;53.584;9.938;2023-06-24T04:24:55;15.20;99.90
3023;DHT22;1521;53.584;9.938;2023-06-24T04:27:20;15.30;99.90
3023;DHT22;1521;53.584;9.938;2023-06-24T04:29:46;15.40;99.90
3023;DHT22;1521;53.584;9.938;2023-06-24T04:32:11;15.50;99.90
3023;DHT22;1521;53.584;9.938;2023-06-24T04:34:37;15.50;99.90
3023;DHT22;1521;53.584;9.938;2023-06-24T04:37:02;15.70;99.90
3023;DHT22;1521;53.584;9.938;2023-06-24T04:39:28;15.80;99.90
3023;DHT22;1521;53.584;9.938;2023-06-24T04:41:54;15.90;99.90
3023;DHT22;1521;53.584;9.938;2023-06-24T04:44:19;16.10;99.90
3023;DHT22;1521;53.584;9.938;2023-06-24T04:46:45;16.20;99.90
3023;DHT22;1521;53.584;9.938;2023-06-24T04:49:11;16.40;99.90
3023;DHT22;1521;53.584;9.938;2023-06-24T04:51:37;16.50;99.90
3023;DHT22;1521;53.584;9.938;2023-06-24T04:54:02;16.60;99.90
3023;DHT22;1521;53.584;9.938;2023-06-24T04:56:29;16.70;99.90
3023;DHT22;1521;53.584;9.938;2023-06-24T04:58:55;16.80;99.90
3023;DHT22;1521;53.584;9.938;2023-06-24T05:01:21;16.80;99.90
3023;DHT22;1521;53.584;9.938;2023-06-24T05:03:47;16.90;99.90
3023;DHT22;1521;53.584;9.938;2023-06-24T05:06:12;17.00;99.90
3023;DHT22;1521;53.584;9.938;2023-06-24T05:08:38;17.10;99.90
3023;DHT22;1521;53.584;9.938;2023-06-24T05:11:04;17.20;99.90
3023;DHT22;1521;53.584;9.938;2023-06-24T05:13:29;17.40;99.90
3023;DHT22;1521;53.584;9.938;2023-06-24T05:15:55;17.40;90.30
3023;DHT22;1521;53.584;9.938;2023-06-24T05:18:20;17.50;78.30
3023;DHT22;1521;53.584;9.938;2023-06-24T05:20:46;17.50;8.10
3023;DHT22;1521;53.584;9.938;2023-06-24T05:23:11;17.60;1.00
3023;DHT22;1521;53.584;9.938;2023-06-24T05:25:37;17.80;1.00
3023;DHT22;1521;53.584;9.938;2023-06-24T05:28:03;17.90;1.00
3023;DHT22;1521;53.584;9.938;2023-06-24T05:30:28;18.00;1.00
3023;DHT22;1521;53.584;9.938;2023-06-24T05:32:54;18.20;1.00
3023;DHT22;1521;53.584;9.938;2023-06-24T05:35:19;18.30;99.90
3023;DHT22;1521;53.584;9.938;2023-06-24T05:37:45;18.50;99.90
3023;DHT22;1521;53.584;9.938;2023-06-24T05:40:11;18.70;99.90
3023;DHT22;1521;53.584;9.938;2023-06-24T05:42:38;18.90;1.00
3023;DHT22;1521;53.584;9.938;2023-06-24T05:45:04;19.10;1.00
3023;DHT22;1521;53.584;9.938;2023-06-24T05:47:31;19.20;1.00
3023;DHT22;1521;53.584;9.938;2023-06-24T05:49:57;19.30;99.90
3023;DHT22;1521;53.584;9.938;2023-06-24T05:52:22;19.50;4.50
3023;DHT22;1521;53.584;9.938;2023-06-24T05:54:48;19.60;1.00
3023;DHT22;1521;53.584;9.938;2023-06-24T05:57:14;19.90;99.90
3023;DHT22;1521;53.584;9.938;2023-06-24T05:59:39;20.20;15.00
3023;DHT22;1521;53.584;9.938;2023-06-24T06:02:05;20.20;1.00
3023;DHT22;1521;53.584;9.938;2023-06-24T06:04:31;20.10;1.00
3023;DHT22;1521;53.584;9.938;2023-06-24T06:06:56;19.90;1.00
3023;DHT22;1521;53.584;9.938;2023-06-24T06:09:22;19.80;1.00
3023;DHT22;1521;53.584;9.938;2023-06-24T06:11:48;19.80;25.50
3023;DHT22;1521;53.584;9.938;2023-06-24T06:14:14;20.10;31.20
3023;DHT22;1521;53.584;9.938;2023-06-24T06:16:39;20.20;1.00
3023;DHT22;1521;53.584;9.938;2023-06-24T06:19:05;20.10;1.00
3023;DHT22;1521;53.584;9.938;2023-06-24T06:21:31;20.20;1.00
3023;DHT22;1521;53.584;9.938;2023-06-24T06:23:56;20.20;1.00
3023;DHT22;1521;53.584;9.938;2023-06-24T06:26:22;20.10;1.00
3023;DHT22;1521;53.584;9.938;2023-06-24T06:28:47;20.00;1.00
3023;DHT22;1521;53.584;9.938;2023-06-24T06:31:14;20.40;1.00
3023;DHT22;1521;53.584;9.938;2023-06-24T06:33:39;20.80;1.00
3023;DHT22;1521;53.584;9.938;2023-06-24T06:36:05;21.00;1.00
3023;DHT22;1521;53.584;9.938;2023-06-24T06:38:33;20.60;1.00
3023;DHT22;1521;53.584;9.938;2023-06-24T06:40:59;20.80;1.00
3023;DHT22;1521;53.584;9.938;2023-06-24T06:43:25;21.20;1.00
3023;DHT22;1521;53.584;9.938;2023-06-24T06:45:50;21.50;1.00
3023;DHT22;1521;53.584;9.938;2023-06-24T06:48:16;21.60;1.00
3023;DHT22;1521;53.584;9.938;2023-06-24T06:50:42;21.40;1.00
3023;DHT22;1521;53.584;9.938;2023-06-24T06:53:07;21.40;1.00
3023;DHT22;1521;53.584;9.938;2023-06-24T06:55:33;21.60;1.00
3023;DHT22;1521;53.584;9.938;2023-06-24T06:57:58;21.80;1.00
3023;DHT22;1521;53.584;9.938;2023-06-24T07:00:24;21.80;1.00
3023;DHT22;1521;53.584;9.938;2023-06-24T07:02:50;21.90;1.00
3023;DHT22;1521;53.584;9.938;2023-06-24T07:05:15;21.90;1.00
3023;DHT22;1521;53.584;9.938;2023-06-24T07:07:41;21.90;1.00
3023;DHT22;1521;53.584;9.938;2023-06-24T07:10:09;22.00;1.00
3023;DHT22;1521;53.584;9.938;2023-06-24T07:12:34;22.20;1.00
3023;DHT22;1521;53.584;9.938;2023-06-24T07:15:00;22.40;1.00
3023;DHT22;1521;53.584;9.938;2023-06-24T07:17:26;22.50;1.00
3023;DHT22;1521;53.584;9.938;2023-06-24T07:19:51;22.80;1.00
3023;DHT22;1521;53.584;9.938;2023-06-24T07:22:17;23.10;1.00
3023;DHT22;1521;53.584;9.938;2023-06-24T07:24:42;23.40;1.00
3023;DHT22;1521;53.584;9.938;2023-06-24T07:27:08;23.40;1.00
3023;DHT22;1521;53.584;9.938;2023-06-24T07:29:33;23.40;1.00
3023;DHT22;1521;53.584;9.938;2023-06-24T07:31:59;23.40;1.00
3023;DHT22;1521;53.584;9.938;2023-06-24T07:34:25;23.50;1.00
3023;DHT22;1521;53.584;9.938;2023-06-24T07:36:50;23.80;1.00
3023;DHT22;1521;53.584;9.938;2023-06-24T07:39:17;24.00;1.00
3023;DHT22;1521;53.584;9.938;2023-06-24T07:41:43;24.30;1.00
3023;DHT22;1521;53.584;9.938;2023-06-24T07:44:08;24.40;1.00
3023;DHT22;1521;53.584;9.938;2023-06-24T07:46:34;24.70;1.00
3023;DHT22;1521;53.584;9.938;2023-06-24T07:49:00;24.90;1.00
3023;DHT22;1521;53.584;9.938;2023-06-24T07:51:25;25.20;1.00
3023;DHT22;1521;53.584;9.938;2023-06-24T07:53:51;25.60;1.00
3023;DHT22;1521;53.584;9.938;2023-06-24T07:56:17;25.80;1.00
3023;DHT22;1521;53.584;9.938;2023-06-24T07:58:42;25.90;1.00
3023;DHT22;1521;53.584;9.938;2023-06-24T08:01:08;25.90;1.00
3023;DHT22;1521;53.584;9.938;2023-06-24T08:03:34;25.70;1.00
3023;DHT22;1521;53.584;9.938;2023-06-24T08:06:02;25.10;1.00
3023;DHT22;1521;53.584;9.938;2023-06-24T08:08:27;24.80;1.00
3023;DHT22;1521;53.584;9.938;2023-06-24T08:10:53;24.70;1.00
3023;DHT22;1521;53.584;9.938;2023-06-24T08:13:18;24.20;1.00
3023;DHT22;1521;53.584;9.938;2023-06-24T08:15:44;24.00;1.00
3023;DHT22;1521;53.584;9.938;2023-06-24T08:18:10;23.90;1.00
3023;DHT22;1521;53.584;9.938;2023-06-24T08:20:35;24.00;1.00
3023;DHT22;1521;53.584;9.938;2023-06-24T08:23:01;24.40;1.00
3023;DHT22;1521;53.584;9.938;2023-06-24T08:25:27;24.60;1.00
3023;DHT22;1521;53.584;9.938;2023-06-24T08:27:52;24.70;1.00
3023;DHT22;1521;53.584;9.938;2023-06-24T08:30:18;25.10;1.00
3023;DHT22;1521;53.584;9.938;2023-06-24T08:32:43;24.90;1.00
3023;DHT22;1521;53.584;9.938;2023-06-24T08:35:09;24.90;1.00
3023;DHT22;1521;53.584;9.938;2023-06-24T08:37:36;25.10;1.00
3023;DHT22;1521;53.584;9.938;2023-06-24T08:40:02;25.20;1.00
3023;DHT22;1521;53.584;9.938;2023-06-24T08:42:30;25.00;1.00
3023;DHT22;1521;53.584;9.938;2023-06-24T08:44:56;25.20;1.00
3023;DHT22;1521;53.584;9.938;2023-06-24T08:47:25;25.10;1.00
3023;DHT22;1521;53.584;9.938;2023-06-24T08:49:55;25.00;1.00
3023;DHT22;1521;53.584;9.938;2023-06-24T08:52:30;25.30;1.00
3023;DHT22;1521;53.584;9.938;2023-06-24T08:54:58;25.50;1.00
3023;DHT22;1521;53.584;9.938;2023-06-24T08:57:24;25.90;1.00
3023;DHT22;1521;53.584;9.938;2023-06-24T08:59:49;26.20;1.00
3023;DHT22;1521;53.584;9.938;2023-06-24T09:02:15;26.40;1.00
3023;DHT22;1521;53.584;9.938;2023-06-24T09:04:41;26.50;1.00
3023;DHT22;1521;53.584;9.938;2023-06-24T09:07:07;26.50;99.90
3023;DHT22;1521;53.584;9.938;2023-06-24T09:09:32;26.50;99.90
3023;DHT22;1521;53.584;9.938;2023-06-24T09:12:00;26.50;99.90
3023;DHT22;1521;53.584;9.938;2023-06-24T09:14:27;26.60;99.90
3023;DHT22;1521;53.584;9.938;2023-06-24T09:16:57;26.80;1.00
3023;DHT22;1521;53.584;9.938;2023-06-24T09:19:25;27.00;99.90
3023;DHT22;1521;53.584;9.938;2023-06-24T09:21:53;26.90;99.90
3023;DHT22;1521;53.584;9.938;2023-06-24T09:24:19;26.80;99.90
3023;DHT22;1521;53.584;9.938;2023-06-24T09:26:45;26.70;99.90
3023;DHT22;1521;53.584;9.938;2023-06-24T09:29:14;26.90;99.90
3023;DHT22;1521;53.584;9.938;2023-06-24T09:31:50;27.10;99.90
3023;DHT22;1521;53.584;9.938;2023-06-24T09:34:19;27.50;99.90
3023;DHT22;1521;53.584;9.938;2023-06-24T09:36:52;27.60;99.90
3023;DHT22;1521;53.584;9.938;2023-06-24T09:39:18;27.80;99.90
3023;DHT22;1521;53.584;9.938;2023-06-24T09:41:49;27.80;99.90
3023;DHT22;1521;53.584;9.938;2023-06-24T09:44:16;27.80;99.90
3023;DHT22;1521;53.584;9.938;2023-06-24T09:46:43;28.00;99.90
3023;DHT22;1521;53.584;9.938;2023-06-24T09:49:08;28.10;99.90
3023;DHT22;1521;53.584;9.938;2023-06-24T09:51:38;28.20;99.90
3023;DHT22;1521;53.584;9.938;2023-06-24T09:54:07;28.30;99.90
3023;DHT22;1521;53.584;9.938;2023-06-24T09:56:36;28.30;99.90
3023;DHT22;1521;53.584;9.938;2023-06-24T09:59:06;28.20;99.90
3023;DHT22;1521;53.584;9.938;2023-06-24T10:01:38;28.00;99.90
3023;DHT22;1521;53.584;9.938;2023-06-24T10:04:05;27.80;99.90
3023;DHT22;1521;53.584;9.938;2023-06-24T10:06:35;27.90;99.90
3023;DHT22;1521;53.584;9.938;2023-06-24T10:09:01;28.30;99.90
3023;DHT22;1521;53.584;9.938;2023-06-24T10:11:27;28.30;99.90
3023;DHT22;1521;53.584;9.938;2023-06-24T10:13:53;28.20;99.90
3023;DHT22;1521;53.584;9.938;2023-06-24T10:16:19;28.10;99.90
3023;DHT22;1521;53.584;9.938;2023-06-24T10:18:45;28.50;99.90
3023;DHT22;1521;53.584;9.938;2023-06-24T10:21:11;28.40;99.90
3023;DHT22;1521;53.584;9.938;2023-06-24T10:23:52;28.30;99.90
3023;DHT22;1521;53.584;9.938;2023-06-24T10:26:29;28.50;99.90
3023;DHT22;1521;53.584;9.938;2023-06-24T10:29:08;28.60;99.90
3023;DHT22;1521;53.584;9.938;2023-06-24T10:37:05;29.60;99.90
3023;DHT22;1521;53.584;9.938;2023-06-24T10:44:51;29.60;99.90
3023;DHT22;1521;53.584;9.938;2023-06-24T10:47:18;29.30;99.90
3023;DHT22;1521;53.584;9.938;2023-06-24T10:49:43;29.20;99.90
3023;DHT22;1521;53.584;9.938;2023-06-24T10:52:12;29.10;99.90
3023;DHT22;1521;53.584;9.938;2023-06-24T10:54:39;28.90;99.90
3023;DHT22;1521;53.584;9.938;2023-06-24T10:57:06;29.60;99.90
3023;DHT22;1521;53.584;9.938;2023-06-24T10:59:42;29.80;99.90
3023;DHT22;1521;53.584;9.938;2023-06-24T11:02:09;29.70;99.90
3023;DHT22;1521;53.584;9.938;2023-06-24T11:04:48;29.60;99.90
3023;DHT22;1521;53.584;9.938;2023-06-24T11:07:17;29.40;99.90
3023;DHT22;1521;53.584;9.938;2023-06-24T11:09:48;29.20;99.90
3023;DHT22;1521;53.584;9.938;2023-06-24T11:12:14;29.70;99.90
3023;DHT22;1521;53.584;9.938;2023-06-24T11:14:40;30.30;99.90
3023;DHT22;1521;53.584;9.938;2023-06-24T11:17:06;30.30;99.90
3023;DHT22;1521;53.584;9.938;2023-06-24T11:19:32;30.30;99.90
3023;DHT22;1521;53.584;9.938;2023-06-24T11:22:01;30.50;99.90
3023;DHT22;1521;53.584;9.938;2023-06-24T11:24:30;30.80;99.90
3023;DHT22;1521;53.584;9.938;2023-06-24T11:26:56;30.90;99.90
3023;DHT22;1521;53.584;9.938;2023-06-24T11:29:24;30.90;99.90
3023;DHT22;1521;53.584;9.938;2023-06-24T11:31:53;30.50;99.90
3023;DHT22;1521;53.584;9.938;2023-06-24T11:34:19;30.80;99.90
3023;DHT22;1521;53.584;9.938;2023-06-24T11:36:44;30.80;99.90
3023;DHT22;1521;53.584;9.938;2023-06-24T11:39:27;30.70;99.90
3023;DHT22;1521;53.584;9.938;2023-06-24T11:41:53;30.40;99.90
3023;DHT22;1521;53.584;9.938;2023-06-24T11:44:24;30.80;99.90
3023;DHT22;1521;53.584;9.938;2023-06-24T11:46:49;31.10;99.90
3023;DHT22;1521;53.584;9.938;2023-06-24T11:49:15;31.00;99.90
3023;DHT22;1521;53.584;9.938;2023-06-24T11:51:51;30.10;99.90
3023;DHT22;1521;53.584;9.938;2023-06-24T11:54:19;29.10;99.90
3023;DHT22;1521;53.584;9.938;2023-06-24T11:56:50;28.50;99.90
3023;DHT22;1521;53.584;9.938;2023-06-24T11:59:18;28.20;99.90
3023;DHT22;1521;53.584;9.938;2023-06-24T12:01:51;28.70;99.90
3023;DHT22;1521;53.584;9.938;2023-06-24T12:04:17;29.70;99.90
3023;DHT22;1521;53.584;9.938;2023-06-24T12:06:44;29.60;99.90
3023;DHT22;1521;53.584;9.938;2023-06-24T12:09:10;28.60;99.90
3023;DHT22;1521;53.584;9.938;2023-06-24T12:11:36;28.00;99.90
3023;DHT22;1521;53.584;9.938;2023-06-24T12:14:02;28.00;99.90
3023;DHT22;1521;53.584;9.938;2023-06-24T12:16:28;28.20;99.90
3023;DHT22;1521;53.584;9.938;2023-06-24T12:18:54;28.00;99.90
3023;DHT22;1521;53.584;9.938;2023-06-24T12:21:19;27.90;99.90
3023;DHT22;1521;53.584;9.938;2023-06-24T12:23:45;27.60;99.90
3023;DHT22;1521;53.584;9.938;2023-06-24T12:26:11;27.30;99.90
3023;DHT22;1521;53.584;9.938;2023-06-24T12:28:37;28.00;99.90
3023;DHT22;1521;53.584;9.938;2023-06-24T12:31:02;28.50;99.90
3023;DHT22;1521;53.584;9.938;2023-06-24T12:33:28;28.50;99.90
3023;DHT22;1521;53.584;9.938;2023-06-24T12:35:54;28.70;99.90
3023;DHT22;1521;53.584;9.938;2023-06-24T12:38:20;29.40;99.90
3023;DHT22;1521;53.584;9.938;2023-06-24T12:40:45;29.90;99.90
3023;DHT22;1521;53.584;9.938;2023-06-24T12:43:11;29.50;99.90
3023;DHT22;1521;53.584;9.938;2023-06-24T12:45:38;28.80;99.90
3023;DHT22;1521;53.584;9.938;2023-06-24T12:48:04;29.00;99.90
3023;DHT22;1521;53.584;9.938;2023-06-24T12:50:29;29.10;99.90
3023;DHT22;1521;53.584;9.938;2023-06-24T12:52:57;28.70;99.90
3023;DHT22;1521;53.584;9.938;2023-06-24T12:55:23;28.20;99.90
3023;DHT22;1521;53.584;9.938;2023-06-24T12:57:48;27.80;99.90
3023;DHT22;1521;53.584;9.938;2023-06-24T13:00:14;27.60;99.90
3023;DHT22;1521;53.584;9.938;2023-06-24T13:02:40;27.20;99.90
3023;DHT22;1521;53.584;9.938;2023-06-24T13:05:06;26.90;99.90
3023;DHT22;1521;53.584;9.938;2023-06-24T13:07:32;27.40;99.90
3023;DHT22;1521;53.584;9.938;2023-06-24T13:09:57;27.90;99.90
3023;DHT22;1521;53.584;9.938;2023-06-24T13:12:24;27.80;99.90
3023;DHT22;1521;53.584;9.938;2023-06-24T13:14:50;27.60;99.90
3023;DHT22;1521;53.584;9.938;2023-06-24T13:17:15;27.50;99.90
3023;DHT22;1521;53.584;9.938;2023-06-24T13:19:41;27.10;99.90
3023;DHT22;1521;53.584;9.938;2023-06-24T13:22:07;27.10;99.90
3023;DHT22;1521;53.584;9.938;2023-06-24T13:24:32;27.70;99.90
3023;DHT22;1521;53.584;9.938;2023-06-24T13:26:58;28.50;99.90
3023;DHT22;1521;53.584;9.938;2023-06-24T13:29:23;29.30;99.90
3023;DHT22;1521;53.584;9.938;2023-06-24T13:31:49;29.20;99.90
3023;DHT22;1521;53.584;9.938;2023-06-24T13:34:14;28.40;99.90
3023;DHT22;1521;53.584;9.938;2023-06-24T13:36:40;27.90;99.90
3023;DHT22;1521;53.584;9.938;2023-06-24T13:39:08;27.60;99.90
3023;DHT22;1521;53.584;9.938;2023-06-24T13:41:34;27.90;99.90
3023;DHT22;1521;53.584;9.938;2023-06-24T13:44:03;28.50;99.90
3023;DHT22;1521;53.584;9.938;2023-06-24T13:46:30;28.50;99.90
3023;DHT22;1521;53.584;9.938;2023-06-24T13:48:57;28.00;99.90
3023;DHT22;1521;53.584;9.938;2023-06-24T13:51:24;28.00;99.90
3023;DHT22;1521;53.584;9.938;2023-06-24T13:53:51;28.90;99.90
3023;DHT22;1521;53.584;9.938;2023-06-24T13:56:18;29.70;99.90
3023;DHT22;1521;53.584;9.938;2023-06-24T13:58:44;30.10;99.90
3023;DHT22;1521;53.584;9.938;2023-06-24T14:01:09;30.30;99.90
3023;DHT22;1521;53.584;9.938;2023-06-24T14:03:35;30.20;99.90
3023;DHT22;1521;53.584;9.938;2023-06-24T14:06:01;29.80;99.90
3023;DHT22;1521;53.584;9.938;2023-06-24T14:08:28;29.40;99.90
3023;DHT22;1521;53.584;9.938;2023-06-24T14:10:55;29.60;99.90
3023;DHT22;1521;53.584;9.938;2023-06-24T14:13:21;29.50;99.90
3023;DHT22;1521;53.584;9.938;2023-06-24T14:15:47;29.10;99.90
3023;DHT22;1521;53.584;9.938;2023-06-24T14:18:12;28.60;99.90
3023;DHT22;1521;53.584;9.938;2023-06-24T14:20:38;28.30;99.90
3023;DHT22;1521;53.584;9.938;2023-06-24T14:23:04;28.10;99.90
3023;DHT22;1521;53.584;9.938;2023-06-24T14:25:30;28.30;99.90
3023;DHT22;1521;53.584;9.938;2023-06-24T14:27:55;28.30;99.90
3023;DHT22;1521;53.584;9.938;2023-06-24T14:30:21;27.90;99.90
3023;DHT22;1521;53.584;9.938;2023-06-24T14:32:47;28.00;99.90
3023;DHT22;1521;53.584;9.938;2023-06-24T14:35:12;28.70;99.90
3023;DHT22;1521;53.584;9.938;2023-06-24T14:37:38;29.30;99.90
3023;DHT22;1521;53.584;9.938;2023-06-24T14:40:04;29.20;99.90
3023;DHT22;1521;53.584;9.938;2023-06-24T14:42:30;28.90;99.90
3023;DHT22;1521;53.584;9.938;2023-06-24T14:44:56;28.40;99.90
3023;DHT22;1521;53.584;9.938;2023-06-24T14:47:21;27.80;99.90
3023;DHT22;1521;53.584;9.938;2023-06-24T14:49:47;27.20;99.90
3023;DHT22;1521;53.584;9.938;2023-06-24T14:52:12;27.10;99.90
3023;DHT22;1521;53.584;9.938;2023-06-24T14:54:38;26.90;99.90
3023;DHT22;1521;53.584;9.938;2023-06-24T14:57:03;27.10;99.90
3023;DHT22;1521;53.584;9.938;2023-06-24T14:59:29;27.40;99.90
3023;DHT22;1521;53.584;9.938;2023-06-24T15:01:55;27.30;99.90
3023;DHT22;1521;53.584;9.938;2023-06-24T15:04:20;27.20;99.90
3023;DHT22;1521;53.584;9.938;2023-06-24T15:06:46;27.10;99.90
3023;DHT22;1521;53.584;9.938;2023-06-24T15:09:11;26.90;99.90
3023;DHT22;1521;53.584;9.938;2023-06-24T15:11:37;26.60;99.90
3023;DHT22;1521;53.584;9.938;2023-06-24T15:14:02;26.50;99.90
3023;DHT22;1521;53.584;9.938;2023-06-24T15:16:28;26.50;99.90
3023;DHT22;1521;53.584;9.938;2023-06-24T15:18:54;26.50;99.90
3023;DHT22;1521;53.584;9.938;2023-06-24T15:21:20;26.40;99.90
3023;DHT22;1521;53.584;9.938;2023-06-24T15:23:46;26.40;99.90
3023;DHT22;1521;53.584;9.938;2023-06-24T15:26:12;26.30;99.90
3023;DHT22;1521;53.584;9.938;2023-06-24T15:28:38;26.20;99.90
3023;DHT22;1521;53.584;9.938;2023-06-24T15:31:03;26.10;99.90
3023;DHT22;1521;53.584;9.938;2023-06-24T15:33:29;25.80;99.90
3023;DHT22;1521;53.584;9.938;2023-06-24T15:35:54;25.80;99.90
3023;DHT22;1521;53.584;9.938;2023-06-24T15:38:20;25.70;99.90
3023;DHT22;1521;53.584;9.938;2023-06-24T15:40:46;25.60;99.90
3023;DHT22;1521;53.584;9.938;2023-06-24T15:43:11;25.60;99.90
3023;DHT22;1521;53.584;9.938;2023-06-24T15:45:38;25.70;99.90
3023;DHT22;1521;53.584;9.938;2023-06-24T15:48:04;25.80;99.90
3023;DHT22;1521;53.584;9.938;2023-06-24T15:50:30;26.00;99.90
3023;DHT22;1521;53.584;9.938;2023-06-24T15:52:56;26.10;99.90
3023;DHT22;1521;53.584;9.938;2023-06-24T15:55:21;26.30;99.90
3023;DHT22;1521;53.584;9.938;2023-06-24T15:57:47;26.20;99.90
3023;DHT22;1521;53.584;9.938;2023-06-24T16:00:13;26.30;99.90
3023;DHT22;1521;53.584;9.938;2023-06-24T16:02:39;26.30;99.90
3023;DHT22;1521;53.584;9.938;2023-06-24T16:05:05;26.30;99.90
3023;DHT22;1521;53.584;9.938;2023-06-24T16:07:32;26.10;99.90
3023;DHT22;1521;53.584;9.938;2023-06-24T16:09:58;26.10;99.90
3023;DHT22;1521;53.584;9.938;2023-06-24T16:12:24;25.80;99.90
3023;DHT22;1521;53.584;9.938;2023-06-24T16:14:50;25.50;99.90
3023;DHT22;1521;53.584;9.938;2023-06-24T16:17:15;25.40;99.90
3023;DHT22;1521;53.584;9.938;2023-06-24T16:19:41;25.30;99.90
3023;DHT22;1521;53.584;9.938;2023-06-24T16:22:06;25.20;99.90